sensor_id;sensor_type;location;lat;lon;timestamp;pressure;altitude;pressure_sealevel;temperature;humidity
13594;BME280;6449;47.666;9.160;2023-02-13T00:03:00;98809.25;;;0.96;100.00
13594;BME280;6449;47.666;9.160;2023-02-13T00:07:54;98813.53;;;0.96;100.00
13594;BME280;6449;47.666;9.160;2023-02-13T00:12:48;98809.28;;;0.87;100.00
13594;BME280;6449;47.666;9.160;2023-02-13T00:17:41;98811.94;;;0.76;100.00
13594;BME280;6449;47.666;9.160;2023-02-13T00:22:37;98805.94;;;0.76;100.00
13594;BME280;6449;47.666;9.160;2023-02-13T00:27:31;98811.00;;;0.85;100.00
13594;BME280;6449;47.666;9.160;2023-02-13T00:32:24;98811.00;;;0.88;100.00
13594;BME280;6449;47.666;9.160;2023-02-13T00:37:18;98812.66;;;0.95;100.00
13594;BME280;6449;47.666;9.160;2023-02-13T00:42:13;98810.06;;;1.01;100.00
13594;BME280;6449;47.666;9.160;2023-02-13T00:47:06;98808.38;;;0.94;100.00
13594;BME280;6449;47.666;9.160;2023-02-13T00:52:00;98811.72;;;1.09;100.00
13594;BME280;6449;47.666;9.160;2023-02-13T00:56:54;98805.56;;;1.26;100.00
13594;BME280;6449;47.666;9.160;2023-02-13T01:01:49;98808.09;;;1.36;100.00
13594;BME280;6449;47.666;9.160;2023-02-13T01:06:42;98803.72;;;1.42;100.00
13594;BME280;6449;47.666;9.160;2023-02-13T01:11:36;98804.47;;;1.53;100.00
13594;BME280;6449;47.666;9.160;2023-02-13T01:16:32;98807.94;;;1.51;100.00
13594;BME280;6449;47.666;9.160;2023-02-13T01:21:27;98813.22;;;1.37;100.00
13594;BME280;6449;47.666;9.160;2023-02-13T01:26:22;98803.81;;;1.31;100.00
13594;BME280;6449;47.666;9.160;2023-02-13T01:31:16;98815.00;;;1.30;100.00
13594;BME280;6449;47.666;9.160;2023-02-13T01:36:11;98813.34;;;1.25;100.00
13594;BME280;6449;47.666;9.160;2023-02-13T01:41:09;98813.34;;;1.22;100.00
13594;BME280;6449;47.666;9.160;2023-02-13T01:46:02;98803.03;;;1.23;100.00
13594;BME280;6449;47.666;9.160;2023-02-13T01:51:00;98809.09;;;1.18;100.00
13594;BME280;6449;47.666;9.160;2023-02-13T01:56:12;98810.72;;;1.26;100.00
13594;BME280;6449;47.666;9.160;2023-02-13T02:01:09;98815.78;;;1.40;100.00
13594;BME280;6449;47.666;9.160;2023-02-13T02:06:06;98819.16;;;1.48;100.00
13594;BME280;6449;47.666;9.160;2023-02-13T02:11:10;98818.28;;;1.52;100.00
13594;BME280;6449;47.666;9.160;2023-02-13T02:16:09;98816.47;;;1.62;100.00
13594;BME280;6449;47.666;9.160;2023-02-13T02:21:48;98819.09;;;1.57;100.00
13594;BME280;6449;47.666;9.160;2023-02-13T02:27:16;98826.78;;;1.65;100.00
13594;BME280;6449;47.666;9.160;2023-02-13T02:32:26;98831.91;;;1.71;100.00
13594;BME280;6449;47.666;9.160;2023-02-13T02:37:43;98828.38;;;1.78;100.00
13594;BME280;6449;47.666;9.160;2023-02-13T02:42:56;98821.47;;;1.79;100.00
13594;BME280;6449;47.666;9.160;2023-02-13T02:48:02;98820.56;;;1.83;100.00
13594;BME280;6449;47.666;9.160;2023-02-13T02:58:30;98829.28;;;1.73;100.00
13594;BME280;6449;47.666;9.160;2023-02-13T03:09:00;98828.47;;;1.71;100.00
13594;BME280;6449;47.666;9.160;2023-02-13T03:14:25;98833.56;;;1.75;100.00
13594;BME280;6449;47.666;9.160;2023-02-13T03:19:30;98834.44;;;1.74;100.00
13594;BME280;6449;47.666;9.160;2023-02-13T03:24:55;98840.41;;;1.81;100.00
13594;BME280;6449;47.666;9.160;2023-02-13T03:30:02;98834.28;;;1.90;100.00
13594;BME280;6449;47.666;9.160;2023-02-13T03:35:18;98836.81;;;1.96;100.00
13594;BME280;6449;47.666;9.160;2023-02-13T03:40:42;98847.22;;;1.90;100.00
13594;BME280;6449;47.666;9.160;2023-02-13T03:45:51;98848.00;;;1.96;100.00
13594;BME280;6449;47.666;9.160;2023-02-13T03:50:48;98847.09;;;2.02;100.00
13594;BME280;6449;47.666;9.160;2023-02-13T03:55:46;98847.94;;;2.05;100.00
13594;BME280;6449;47.666;9.160;2023-02-13T04:01:01;98852.25;;;2.02;100.00
13594;BME280;6449;47.666;9.160;2023-02-13T04:06:03;98850.56;;;2.01;100.00
13594;BME280;6449;47.666;9.160;2023-02-13T04:11:06;98856.59;;;2.01;100.00
13594;BME280;6449;47.666;9.160;2023-02-13T04:16:08;98849.72;;;1.99;100.00
13594;BME280;6449;47.666;9.160;2023-02-13T04:21:04;98857.50;;;1.99;100.00
13594;BME280;6449;47.666;9.160;2023-02-13T04:26:03;98855.72;;;2.04;100.00
13594;BME280;6449;47.666;9.160;2023-02-13T04:30:57;98854.81;;;2.08;100.00
13594;BME280;6449;47.666;9.160;2023-02-13T04:35:51;98852.22;;;2.08;100.00
13594;BME280;6449;47.666;9.160;2023-02-13T04:40:45;98861.75;;;2.01;100.00
13594;BME280;6449;47.666;9.160;2023-02-13T04:45:40;98866.06;;;2.02;100.00
13594;BME280;6449;47.666;9.160;2023-02-13T04:50:33;98859.13;;;2.09;100.00
13594;BME280;6449;47.666;9.160;2023-02-13T04:55:27;98853.06;;;2.10;100.00
13594;BME280;6449;47.666;9.160;2023-02-13T05:00:23;98859.91;;;2.16;100.00
13594;BME280;6449;47.666;9.160;2023-02-13T05:05:18;98850.38;;;2.19;100.00
13594;BME280;6449;47.666;9.160;2023-02-13T05:10:12;98857.28;;;2.17;100.00
13594;BME280;6449;47.666;9.160;2023-02-13T05:15:07;98852.97;;;2.18;100.00
13594;BME280;6449;47.666;9.160;2023-02-13T05:20:03;98860.69;;;2.24;100.00
13594;BME280;6449;47.666;9.160;2023-02-13T05:31:25;98852.69;;;2.42;100.00
13594;BME280;6449;47.666;9.160;2023-02-13T05:36:18;98856.19;;;2.38;100.00
13594;BME280;6449;47.666;9.160;2023-02-13T05:41:12;98859.69;;;2.34;100.00
13594;BME280;6449;47.666;9.160;2023-02-13T05:46:08;98858.84;;;2.35;100.00
13594;BME280;6449;47.666;9.160;2023-02-13T05:51:03;98855.31;;;2.41;100.00
13594;BME280;6449;47.666;9.160;2023-02-13T05:55:57;98855.25;;;2.47;100.00
13594;BME280;6449;47.666;9.160;2023-02-13T06:00:54;98852.66;;;2.47;100.00
13594;BME280;6449;47.666;9.160;2023-02-13T06:05:48;98857.84;;;2.44;100.00
13594;BME280;6449;47.666;9.160;2023-02-13T06:10:44;98863.03;;;2.44;100.00
13594;BME280;6449;47.666;9.160;2023-02-13T06:15:39;98860.38;;;2.48;100.00
13594;BME280;6449;47.666;9.160;2023-02-13T06:20:33;98861.28;;;2.47;100.00
13594;BME280;6449;47.666;9.160;2023-02-13T06:25:27;98864.72;;;2.48;100.00
13594;BME280;6449;47.666;9.160;2023-02-13T06:30:22;98869.00;;;2.52;100.00
13594;BME280;6449;47.666;9.160;2023-02-13T06:35:16;98869.03;;;2.47;100.00
13594;BME280;6449;47.666;9.160;2023-02-13T06:40:12;98874.25;;;2.46;100.00
13594;BME280;6449;47.666;9.160;2023-02-13T06:45:07;98875.09;;;2.45;100.00
13594;BME280;6449;47.666;9.160;2023-02-13T06:50:02;98878.56;;;2.44;100.00
13594;BME280;6449;47.666;9.160;2023-02-13T06:54:55;98888.09;;;2.42;100.00
13594;BME280;6449;47.666;9.160;2023-02-13T06:59:49;98881.19;;;2.39;100.00
13594;BME280;6449;47.666;9.160;2023-02-13T07:04:42;98889.81;;;2.40;100.00
13594;BME280;6449;47.666;9.160;2023-02-13T07:09:37;98886.31;;;2.45;100.00
13594;BME280;6449;47.666;9.160;2023-02-13T07:55:29;98913.53;;;2.78;100.00
13594;BME280;6449;47.666;9.160;2023-02-13T08:00:24;98910.91;;;2.81;100.00
13594;BME280;6449;47.666;9.160;2023-02-13T08:05:19;98913.44;;;2.86;100.00
13594;BME280;6449;47.666;9.160;2023-02-13T08:10:16;98912.53;;;2.90;100.00
13594;BME280;6449;47.666;9.160;2023-02-13T08:15:28;98918.53;;;2.94;100.00
13594;BME280;6449;47.666;9.160;2023-02-13T08:20:23;98920.16;;;3.01;100.00
13594;BME280;6449;47.666;9.160;2023-02-13T08:25:17;98919.22;;;3.06;100.00
13594;BME280;6449;47.666;9.160;2023-02-13T08:30:12;98920.91;;;3.10;100.00
13594;BME280;6449;47.666;9.160;2023-02-13T08:35:07;98929.59;;;3.06;100.00
13594;BME280;6449;47.666;9.160;2023-02-13T08:40:01;98929.63;;;3.03;100.00
13594;BME280;6449;47.666;9.160;2023-02-13T08:44:54;98929.63;;;3.03;100.00
13594;BME280;6449;47.666;9.160;2023-02-13T08:49:49;98931.34;;;3.06;100.00
13594;BME280;6449;47.666;9.160;2023-02-13T08:54:44;98932.97;;;3.14;100.00
13594;BME280;6449;47.666;9.160;2023-02-13T09:15:00;98930.22;;;3.24;100.00
13594;BME280;6449;47.666;9.160;2023-02-13T09:19:54;98929.25;;;3.32;100.00
13594;BME280;6449;47.666;9.160;2023-02-13T09:24:47;98937.06;;;3.29;100.00
13594;BME280;6449;47.666;9.160;2023-02-13T09:29:41;98934.41;;;3.34;100.00
13594;BME280;6449;47.666;9.160;2023-02-13T09:34:36;98946.63;;;3.26;100.00
13594;BME280;6449;47.666;9.160;2023-02-13T09:39:29;98944.78;;;3.34;100.00
13594;BME280;6449;47.666;9.160;2023-02-13T09:44:30;98942.09;;;3.41;100.00
13594;BME280;6449;47.666;9.160;2023-02-13T09:49:31;98942.16;;;3.35;100.00
13594;BME280;6449;47.666;9.160;2023-02-13T09:54:27;98943.00;;;3.37;100.00
13594;BME280;6449;47.666;9.160;2023-02-13T09:59:39;98942.94;;;3.42;100.00
13594;BME280;6449;47.666;9.160;2023-02-13T10:04:47;98947.97;;;3.51;100.00
13594;BME280;6449;47.666;9.160;2023-02-13T10:09:55;98947.03;;;3.57;100.00
13594;BME280;6449;47.666;9.160;2023-02-13T10:35:29;98931.06;;;3.83;100.00
13594;BME280;6449;47.666;9.160;2023-02-13T10:40:31;98936.41;;;3.72;100.00
13594;BME280;6449;47.666;9.160;2023-02-13T10:45:50;98928.50;;;3.81;100.00
13594;BME280;6449;47.666;9.160;2023-02-13T10:51:00;98918.13;;;3.81;100.00
13594;BME280;6449;47.666;9.160;2023-02-13T10:56:18;98912.78;;;3.90;100.00
13594;BME280;6449;47.666;9.160;2023-02-13T11:01:26;98918.06;;;3.86;100.00
13594;BME280;6449;47.666;9.160;2023-02-13T11:06:26;98916.28;;;3.88;100.00
13594;BME280;6449;47.666;9.160;2023-02-13T11:11:29;98915.09;;;4.07;100.00
13594;BME280;6449;47.666;9.160;2023-02-13T11:16:23;98913.28;;;4.12;100.00
13594;BME280;6449;47.666;9.160;2023-02-13T11:21:22;98916.69;;;4.14;100.00
13594;BME280;6449;47.666;9.160;2023-02-13T11:26:33;98925.28;;;4.18;100.00
13594;BME280;6449;47.666;9.160;2023-02-13T11:57:19;98923.41;;;4.28;100.00
13594;BME280;6449;47.666;9.160;2023-02-13T12:07:22;98927.97;;;4.13;100.00
13594;BME280;6449;47.666;9.160;2023-02-13T12:12:31;98927.75;;;4.27;100.00
13594;BME280;6449;47.666;9.160;2023-02-13T14:36:06;98894.38;;;4.95;100.00
13594;BME280;6449;47.666;9.160;2023-02-13T14:57:19;98899.22;;;5.11;100.00
13594;BME280;6449;47.666;9.160;2023-02-13T15:32:56;98869.78;;;4.68;100.00
13594;BME280;6449;47.666;9.160;2023-02-13T15:42:58;98864.97;;;4.50;100.00
13594;BME280;6449;47.666;9.160;2023-02-13T15:47:56;98852.22;;;4.39;100.00
13594;BME280;6449;47.666;9.160;2023-02-13T15:52:50;98853.22;;;4.31;100.00
13594;BME280;6449;47.666;9.160;2023-02-13T16:33:32;98834.41;;;3.72;100.00
13594;BME280;6449;47.666;9.160;2023-02-13T16:38:36;98846.81;;;3.54;100.00
13594;BME280;6449;47.666;9.160;2023-02-13T16:43:49;98838.25;;;3.49;100.00
13594;BME280;6449;47.666;9.160;2023-02-13T16:49:01;98833.94;;;3.48;100.00
13594;BME280;6449;47.666;9.160;2023-02-13T16:54:00;98840.97;;;3.40;100.00
13594;BME280;6449;47.666;9.160;2023-02-13T16:59:10;98836.84;;;3.28;100.00
13594;BME280;6449;47.666;9.160;2023-02-13T17:04:20;98838.75;;;3.17;100.00
13594;BME280;6449;47.666;9.160;2023-02-13T17:09:17;98852.88;;;2.96;100.00
13594;BME280;6449;47.666;9.160;2023-02-13T17:14:10;98865.88;;;2.93;100.00
13594;BME280;6449;47.666;9.160;2023-02-13T17:19:04;98859.03;;;2.86;100.00
13594;BME280;6449;47.666;9.160;2023-02-13T17:24:01;98859.09;;;2.83;100.00
13594;BME280;6449;47.666;9.160;2023-02-13T17:34:01;98867.91;;;2.70;100.00
13594;BME280;6449;47.666;9.160;2023-02-13T17:38:55;98866.22;;;2.66;100.00
13594;BME280;6449;47.666;9.160;2023-02-13T17:43:50;98876.81;;;2.44;100.00
13594;BME280;6449;47.666;9.160;2023-02-13T17:48:46;98880.34;;;2.40;100.00
13594;BME280;6449;47.666;9.160;2023-02-13T17:53:40;98875.22;;;2.35;100.00
13594;BME280;6449;47.666;9.160;2023-02-13T17:58:33;98874.34;;;2.36;100.00
13594;BME280;6449;47.666;9.160;2023-02-13T18:03:28;98880.41;;;2.32;100.00
13594;BME280;6449;47.666;9.160;2023-02-13T18:08:22;98879.56;;;2.32;100.00
13594;BME280;6449;47.666;9.160;2023-02-13T18:32:56;98894.66;;;1.87;100.00
13594;BME280;6449;47.666;9.160;2023-02-13T18:37:50;98891.16;;;1.91;100.00
13594;BME280;6449;47.666;9.160;2023-02-13T18:43:15;98895.50;;;1.89;100.00
13594;BME280;6449;47.666;9.160;2023-02-13T18:49:03;98893.78;;;1.90;100.00
13594;BME280;6449;47.666;9.160;2023-02-13T18:58:57;98896.59;;;1.62;100.00
13594;BME280;6449;47.666;9.160;2023-02-13T19:03:52;98898.38;;;1.55;100.00
13594;BME280;6449;47.666;9.160;2023-02-13T19:08:47;98896.63;;;1.61;100.00
13594;BME280;6449;47.666;9.160;2023-02-13T19:13:42;98893.16;;;1.58;100.00
13594;BME280;6449;47.666;9.160;2023-02-13T19:18:37;98894.22;;;1.35;100.00
13594;BME280;6449;47.666;9.160;2023-02-13T19:23:32;98902.75;;;1.46;100.00
13594;BME280;6449;47.666;9.160;2023-02-13T19:33:35;98896.63;;;1.57;100.00
13594;BME280;6449;47.666;9.160;2023-02-13T19:38:30;98907.06;;;1.45;100.00
13594;BME280;6449;47.666;9.160;2023-02-13T19:43:23;98906.28;;;1.31;100.00
13594;BME280;6449;47.666;9.160;2023-02-13T19:48:17;98903.69;;;1.34;100.00
13594;BME280;6449;47.666;9.160;2023-02-13T19:53:17;98904.53;;;1.36;100.00
13594;BME280;6449;47.666;9.160;2023-02-13T19:58:12;98920.13;;;1.24;100.00
13594;BME280;6449;47.666;9.160;2023-02-13T20:08:33;98919.31;;;1.14;100.00
13594;BME280;6449;47.666;9.160;2023-02-13T20:13:27;98921.94;;;1.03;100.00
13594;BME280;6449;47.666;9.160;2023-02-13T20:18:24;98921.97;;;0.99;100.00
13594;BME280;6449;47.666;9.160;2023-02-13T20:33:41;98904.66;;;1.18;100.00
13594;BME280;6449;47.666;9.160;2023-02-13T21:14:25;98885.47;;;1.51;100.00
13594;BME280;6449;47.666;9.160;2023-02-13T21:29:34;98882.13;;;1.40;100.00
13594;BME280;6449;47.666;9.160;2023-02-13T21:34:30;98877.75;;;1.46;100.00
13594;BME280;6449;47.666;9.160;2023-02-13T22:12:13;98861.97;;;1.81;100.00
13594;BME280;6449;47.666;9.160;2023-02-13T23:24:21;98842.63;;;2.18;100.00
13594;BME280;6449;47.666;9.160;2023-02-13T23:34:22;98841.19;;;1.92;100.00
13594;BME280;6449;47.666;9.160;2023-02-13T23:49:30;98860.94;;;1.98;100.00
